createdAt,value
2023-01-01T00:01:29.974Z,1.90
2023-01-01T00:03:59.674Z,1.85
2023-01-01T00:06:38.703Z,1.80
2023-01-01T00:09:24.766Z,1.80
2023-01-01T00:12:01.535Z,2.15
2023-01-01T00:14:28.914Z,1.90
2023-01-01T00:16:56.890Z,1.95
2023-01-01T00:19:30.573Z,2.22
2023-01-01T00:21:57.929Z,2.47
2023-01-01T00:24:25.324Z,2.20
2023-01-01T00:27:01.053Z,2.42
2023-01-01T00:29:31.786Z,2.75
2023-01-01T00:31:59.192Z,2.22
2023-01-01T00:34:32.796Z,2.10
2023-01-01T00:37:00.359Z,2.55
2023-01-01T00:39:27.770Z,2.53
2023-01-01T00:42:03.336Z,2.50
2023-01-01T00:44:30.636Z,3.00
2023-01-01T00:46:58.007Z,2.70
2023-01-01T00:49:32.328Z,3.08
2023-01-01T00:51:59.738Z,3.63
2023-01-01T00:54:27.084Z,3.15
2023-01-01T00:57:01.308Z,3.55
2023-01-01T00:59:29.346Z,3.35
2023-01-01T01:01:56.853Z,3.22
2023-01-01T01:04:32.417Z,3.22
2023-01-01T01:07:07.863Z,2.90
2023-01-01T01:09:46.481Z,2.95
2023-01-01T01:12:17.976Z,2.85
2023-01-01T01:14:53.435Z,2.90
2023-01-01T01:17:22.535Z,3.28
2023-01-01T01:19:49.931Z,4.07
2023-01-01T01:22:28.276Z,3.33
2023-01-01T01:24:56.953Z,3.60
2023-01-01T01:27:31.577Z,3.75
2023-01-01T01:29:58.966Z,3.42
2023-01-01T01:32:26.387Z,3.42
2023-01-01T01:35:00.514Z,3.00
2023-01-01T01:37:29.578Z,3.00
2023-01-01T01:39:56.997Z,2.97
2023-01-01T01:42:30.554Z,3.03
2023-01-01T01:45:03.660Z,2.75
2023-01-01T01:48:16.544Z,2.42
2023-01-01T01:50:53.577Z,2.50
2023-01-01T01:53:34.084Z,2.70
2023-01-01T01:56:05.883Z,2.20
2023-01-01T01:58:41.081Z,2.13
2023-01-01T02:01:08.787Z,2.83
2023-01-01T02:04:05.020Z,2.45
2023-01-01T02:06:54.105Z,2.53
2023-01-01T02:09:28.160Z,2.40
2023-01-01T02:11:55.509Z,2.50
2023-01-01T02:14:22.891Z,2.30
2023-01-01T02:17:08.048Z,2.58
2023-01-01T02:20:11.659Z,2.33
2023-01-01T02:23:23.108Z,2.67
2023-01-01T02:25:50.446Z,2.45
2023-01-01T02:28:56.104Z,2.55
2023-01-01T02:31:31.133Z,2.47
2023-01-01T02:34:19.108Z,2.90
2023-01-01T02:36:51.592Z,2.60
2023-01-01T02:39:29.063Z,2.50
2023-01-01T02:42:01.073Z,2.40
2023-01-01T02:44:40.816Z,2.30
2023-01-01T02:47:14.223Z,2.53
2023-01-01T02:50:12.849Z,2.50
2023-01-01T02:53:00.446Z,2.70
2023-01-01T02:56:08.457Z,2.50
2023-01-01T02:59:18.141Z,2.30
2023-01-01T03:02:02.573Z,2.40
2023-01-01T03:04:33.870Z,2.40
2023-01-01T03:07:55.528Z,1.98
2023-01-01T03:10:31.791Z,2.65
2023-01-01T03:13:24.501Z,2.35
2023-01-01T03:16:17.809Z,2.15
2023-01-01T03:19:21.493Z,2.67
2023-01-01T03:21:59.552Z,2.25
2023-01-01T03:24:47.717Z,1.60
2023-01-01T03:27:43.871Z,2.22
2023-01-01T03:30:20.704Z,1.70
2023-01-01T03:33:03.868Z,2.15
2023-01-01T03:35:45.745Z,2.20
2023-01-01T03:38:37.532Z,1.70
2023-01-01T03:41:30.031Z,1.90
2023-01-01T03:44:14.723Z,1.77
2023-01-01T03:46:49.119Z,1.80
2023-01-01T03:49:17.587Z,1.75
2023-01-01T03:52:13.058Z,1.83
2023-01-01T03:55:08.463Z,1.90
2023-01-01T03:58:01.050Z,1.70
2023-01-01T04:00:42.928Z,2.00
2023-01-01T04:03:26.103Z,1.70
2023-01-01T04:06:02.152Z,1.45
2023-01-01T04:08:38.077Z,1.70
2023-01-01T04:11:30.430Z,1.35
2023-01-01T04:14:04.083Z,1.50
2023-01-01T04:16:32.670Z,1.67
2023-01-01T04:19:00.127Z,1.33
2023-01-01T04:21:34.060Z,1.70
2023-01-01T04:24:02.764Z,1.17
2023-01-01T04:26:32.050Z,1.70
2023-01-01T04:29:07.850Z,1.75
2023-01-01T04:31:35.967Z,1.52
2023-01-01T04:34:03.488Z,1.58
2023-01-01T04:36:37.909Z,1.65
2023-01-01T04:39:05.895Z,1.58
2023-01-01T04:41:33.612Z,1.60
2023-01-01T04:44:07.874Z,1.58
2023-01-01T04:46:35.233Z,1.55
2023-01-01T04:49:02.601Z,1.42
2023-01-01T04:51:36.917Z,1.35
2023-01-01T04:54:04.398Z,1.77
2023-01-01T04:56:31.831Z,1.50
2023-01-01T04:59:05.877Z,1.48
2023-01-01T05:01:33.507Z,1.40
2023-01-01T05:04:01.705Z,1.48
2023-01-01T05:06:35.892Z,1.60
2023-01-01T05:09:05.708Z,1.35
2023-01-01T05:11:34.950Z,1.83
2023-01-01T05:14:09.061Z,1.35
2023-01-01T05:16:38.831Z,1.77
2023-01-01T05:19:08.007Z,1.48
2023-01-01T05:21:45.050Z,1.75
2023-01-01T05:24:12.749Z,1.65
2023-01-01T05:26:42.954Z,1.67
2023-01-01T05:29:17.609Z,2.25
2023-01-01T05:31:46.535Z,1.70
2023-01-01T05:34:14.138Z,1.75
2023-01-01T05:36:48.040Z,1.42
2023-01-01T05:39:15.479Z,1.75
2023-01-01T05:41:42.873Z,1.60
2023-01-01T05:44:18.020Z,1.65
2023-01-01T05:46:45.497Z,1.38
2023-01-01T05:49:15.699Z,1.63
2023-01-01T05:51:50.132Z,1.50
2023-01-01T05:56:43.895Z,1.52
2023-01-01T05:59:18.092Z,1.63
2023-01-01T06:01:46.346Z,1.60
2023-01-01T06:04:18.261Z,1.65
2023-01-01T06:06:52.248Z,1.23
2023-01-01T06:09:26.336Z,1.42
2023-01-01T06:12:00.263Z,1.40
2023-01-01T06:14:27.640Z,1.48
2023-01-01T06:16:55.320Z,1.70
2023-01-01T06:19:29.247Z,1.40
2023-01-01T06:21:56.662Z,1.73
2023-01-01T06:24:24.189Z,1.42
2023-01-01T06:27:25.221Z,1.50
2023-01-01T06:29:52.989Z,1.92
2023-01-01T06:32:20.525Z,1.92
2023-01-01T06:34:54.253Z,1.88
2023-01-01T06:37:21.683Z,1.70
2023-01-01T06:39:49.376Z,1.60
2023-01-01T06:42:23.568Z,1.90
2023-01-01T06:44:52.970Z,1.60
2023-01-01T06:47:20.493Z,1.73
2023-01-01T06:49:54.260Z,2.00
2023-01-01T06:52:21.990Z,1.70
2023-01-01T06:54:49.522Z,1.60
2023-01-01T06:57:23.362Z,1.40
2023-01-01T06:59:51.009Z,1.58
2023-01-01T07:02:22.384Z,1.60
2023-01-01T07:04:56.560Z,1.70
2023-01-01T07:07:35.687Z,1.40
2023-01-01T07:10:11.255Z,1.70
2023-01-01T07:12:38.867Z,1.98
2023-01-01T07:15:07.012Z,1.52
2023-01-01T07:17:41.561Z,1.98
2023-01-01T07:20:09.527Z,1.70
2023-01-01T07:22:40.192Z,1.95
2023-01-01T07:25:17.515Z,1.67
2023-01-01T07:27:45.004Z,1.90
2023-01-01T07:30:12.773Z,1.85
2023-01-01T07:32:46.502Z,1.48
2023-01-01T07:35:14.157Z,1.77
2023-01-01T07:37:41.681Z,1.70
2023-01-01T07:40:16.518Z,1.60
2023-01-01T07:42:44.220Z,1.60
2023-01-01T07:45:13.514Z,1.67
2023-01-01T07:47:47.507Z,1.80
2023-01-01T07:50:17.939Z,1.88
2023-01-01T07:52:47.752Z,1.70
2023-01-01T07:55:23.733Z,1.70
2023-01-01T07:57:51.283Z,1.80
2023-01-01T08:00:21.841Z,1.67
2023-01-01T08:02:56.700Z,1.60
2023-01-01T08:05:27.031Z,1.90
2023-01-01T08:08:08.687Z,2.13
2023-01-01T08:10:36.350Z,1.65
2023-01-01T08:13:05.852Z,1.90
2023-01-01T08:15:41.089Z,1.73
2023-01-01T08:18:09.726Z,1.40
2023-01-01T08:20:39.274Z,1.70
2023-01-01T08:23:13.381Z,1.70
2023-01-01T08:25:40.911Z,2.15
2023-01-01T08:28:10.438Z,2.00
2023-01-01T08:30:44.597Z,1.90
2023-01-01T08:33:12.220Z,1.98
2023-01-01T08:35:50.349Z,1.80
2023-01-01T08:38:27.682Z,1.45
2023-01-01T08:40:56.288Z,1.98
2023-01-01T08:43:24.083Z,2.08
2023-01-01T08:45:59.746Z,1.50
2023-01-01T08:48:30.926Z,1.80
2023-01-01T08:51:06.728Z,1.73
2023-01-01T08:53:34.211Z,1.80
2023-01-01T08:56:13.709Z,1.73
2023-01-01T08:58:41.716Z,1.50
2023-01-01T09:01:10.360Z,1.63
2023-01-01T09:03:44.715Z,1.88
2023-01-01T09:06:18.737Z,1.65
2023-01-01T09:09:00.667Z,1.67
2023-01-01T09:11:28.944Z,1.95
2023-01-01T09:13:57.507Z,2.15
2023-01-01T09:16:31.759Z,1.90
2023-01-01T09:18:59.195Z,1.45
2023-01-01T09:21:26.705Z,1.80
2023-01-01T09:24:00.667Z,1.80
2023-01-01T09:26:28.106Z,2.10
2023-01-01T09:28:55.456Z,1.88
2023-01-01T09:31:31.107Z,2.05
2023-01-01T09:34:00.817Z,1.70
2023-01-01T09:36:31.237Z,1.67
2023-01-01T09:39:05.766Z,2.00
2023-01-01T09:41:51.031Z,1.80
2023-01-01T09:44:55.780Z,1.58
2023-01-01T09:47:40.717Z,1.60
2023-01-01T09:50:52.747Z,1.95
2023-01-01T09:53:38.033Z,1.70
2023-01-01T09:56:20.198Z,1.90
2023-01-01T09:58:47.670Z,1.50
2023-01-01T10:01:36.287Z,1.95
2023-01-01T10:04:33.289Z,2.00
2023-01-01T10:07:18.293Z,1.98
2023-01-01T10:10:04.144Z,2.00
2023-01-01T10:13:02.283Z,2.22
2023-01-01T10:15:39.325Z,1.90
2023-01-01T10:18:26.573Z,2.05
2023-01-01T10:21:24.676Z,2.38
2023-01-01T10:24:37.487Z,2.22
2023-01-01T10:27:06.192Z,2.00
2023-01-01T10:29:56.801Z,2.05
2023-01-01T10:32:35.688Z,2.08
2023-01-01T10:35:22.959Z,2.05
2023-01-01T10:37:54.256Z,2.60
2023-01-01T10:40:31.517Z,2.40
2023-01-01T10:43:05.249Z,2.25
2023-01-01T10:45:41.496Z,2.05
2023-01-01T10:48:14.219Z,2.15
2023-01-01T10:50:58.452Z,1.88
2023-01-01T10:53:41.785Z,2.13
2023-01-01T10:56:24.550Z,1.90
2023-01-01T10:58:56.726Z,1.83
2023-01-01T11:01:36.572Z,2.47
2023-01-01T11:04:20.712Z,2.20
2023-01-01T11:07:02.528Z,1.90
2023-01-01T11:09:38.588Z,2.58
2023-01-01T11:12:46.052Z,2.00
2023-01-01T11:15:04.655Z,2.10
2023-01-01T11:17:43.473Z,2.80
2023-01-01T11:20:19.885Z,2.33
2023-01-01T11:22:59.482Z,2.35
2023-01-01T11:25:29.258Z,2.38
2023-01-01T11:28:26.515Z,2.05
2023-01-01T11:31:05.533Z,2.17
2023-01-01T11:33:43.487Z,1.70
2023-01-01T11:36:12.019Z,2.83
2023-01-01T11:38:39.591Z,1.90
2023-01-01T11:41:14.485Z,2.00
2023-01-01T11:43:47.428Z,2.35
2023-01-01T11:46:30.855Z,2.58
2023-01-01T11:48:58.631Z,2.40
2023-01-01T11:51:39.300Z,2.38
2023-01-01T11:54:23.096Z,2.05
2023-01-01T11:57:04.334Z,1.90
2023-01-01T11:59:46.918Z,2.03
2023-01-01T12:02:35.341Z,2.05
2023-01-01T12:05:22.507Z,2.17
2023-01-01T12:08:06.921Z,1.95
2023-01-01T12:10:58.354Z,2.45
2023-01-01T12:13:37.484Z,2.13
2023-01-01T12:16:13.798Z,2.17
2023-01-01T12:19:26.330Z,2.35
2023-01-01T12:21:59.501Z,1.77
2023-01-01T12:24:43.219Z,2.10
2023-01-01T12:27:25.545Z,2.35
2023-01-01T12:30:21.667Z,2.33
2023-01-01T12:33:08.689Z,2.22
2023-01-01T12:36:15.288Z,2.55
2023-01-01T12:39:24.239Z,2.45
2023-01-01T12:42:40.217Z,2.35
2023-01-01T12:45:33.241Z,2.33
2023-01-01T12:48:37.679Z,2.20
2023-01-01T12:51:16.747Z,2.08
2023-01-01T12:54:09.567Z,1.92
2023-01-01T12:56:50.730Z,2.08
2023-01-01T12:59:30.258Z,2.10
2023-01-01T13:02:03.277Z,2.00
2023-01-01T13:04:31.096Z,2.28
2023-01-01T13:07:13.914Z,2.38
2023-01-01T13:09:48.540Z,2.38
2023-01-01T13:12:26.009Z,2.00
2023-01-01T13:14:53.403Z,2.13
2023-01-01T13:17:35.026Z,2.65
2023-01-01T13:20:14.370Z,1.80
2023-01-01T13:22:51.072Z,2.20
2023-01-01T13:25:22.426Z,2.08
2023-01-01T13:28:10.005Z,1.85
2023-01-01T13:30:37.620Z,2.10
2023-01-01T13:33:39.065Z,2.42
2023-01-01T13:36:09.756Z,3.10
2023-01-01T13:39:04.059Z,3.15
2023-01-01T13:41:32.748Z,2.75
2023-01-01T13:44:00.783Z,2.80
2023-01-01T13:47:04.071Z,2.72
2023-01-01T13:50:04.827Z,2.50
2023-01-01T13:53:19.150Z,2.70
2023-01-01T13:56:11.503Z,2.72
2023-01-01T13:59:10.064Z,2.63
2023-01-01T14:01:44.341Z,2.42
2023-01-01T14:04:45.704Z,2.40
2023-01-01T14:07:56.740Z,2.40
2023-01-01T14:10:40.609Z,2.72
2023-01-01T14:13:10.889Z,2.40
2023-01-01T14:15:59.780Z,2.63
2023-01-01T14:18:40.048Z,2.60
2023-01-01T14:21:26.847Z,2.80
2023-01-01T14:24:06.559Z,2.58
2023-01-01T14:26:43.791Z,3.13
2023-01-01T14:29:26.601Z,2.80
2023-01-01T14:32:03.684Z,2.22
2023-01-01T14:34:35.116Z,2.40
2023-01-01T14:37:26.700Z,2.70
2023-01-01T14:40:28.117Z,2.35
2023-01-01T14:43:06.749Z,2.47
2023-01-01T14:45:37.041Z,2.50
2023-01-01T14:48:05.496Z,2.50
2023-01-01T14:50:43.998Z,2.60
2023-01-01T14:53:21.247Z,2.92
2023-01-01T14:55:57.757Z,3.00
2023-01-01T14:58:28.913Z,3.08
2023-01-01T15:01:22.879Z,2.80
2023-01-01T15:04:02.515Z,3.15
2023-01-01T15:06:47.940Z,3.00
2023-01-01T15:09:16.930Z,3.08
2023-01-01T15:11:46.736Z,3.10
2023-01-01T15:14:40.680Z,3.35
2023-01-01T15:17:13.153Z,3.00
2023-01-01T15:19:49.685Z,3.28
2023-01-01T15:22:27.529Z,3.05
2023-01-01T15:25:01.685Z,3.17
2023-01-01T15:27:32.336Z,3.08
2023-01-01T15:30:00.379Z,3.35
2023-01-01T15:32:37.981Z,2.72
2023-01-01T15:35:18.134Z,2.92
2023-01-01T15:38:23.735Z,3.05
2023-01-01T15:40:54.073Z,2.63
2023-01-01T15:43:22.776Z,3.08
2023-01-01T15:46:16.702Z,2.47
2023-01-01T15:48:54.946Z,3.08
2023-01-01T15:51:33.142Z,2.75
2023-01-01T15:54:06.387Z,2.75
2023-01-01T15:56:49.247Z,3.03
2023-01-01T15:59:35.912Z,2.67
2023-01-01T16:04:59.139Z,2.67
2023-01-01T16:07:34.315Z,2.90
2023-01-01T16:10:24.232Z,2.67
2023-01-01T16:12:52.321Z,2.70
2023-01-01T16:15:19.882Z,2.95
2023-01-01T16:17:59.924Z,2.90
2023-01-01T16:20:35.693Z,2.55
2023-01-01T16:23:09.884Z,3.20
2023-01-01T16:25:38.863Z,3.10
2023-01-01T16:28:06.515Z,2.95
2023-01-01T16:30:40.998Z,3.17
2023-01-01T16:33:18.903Z,3.00
2023-01-01T16:35:54.979Z,2.28
2023-01-01T16:38:24.428Z,2.50
2023-01-01T16:40:55.543Z,2.90
2023-01-01T16:43:30.805Z,2.60
2023-01-01T16:46:01.327Z,2.72
2023-01-01T16:48:36.779Z,2.70
2023-01-01T16:51:05.720Z,2.72
2023-01-01T16:53:34.152Z,2.83
2023-01-01T16:56:08.627Z,2.97
2023-01-01T16:59:02.299Z,2.53
2023-01-01T17:01:37.599Z,2.83
2023-01-01T17:04:07.892Z,2.42
2023-01-01T17:06:56.759Z,2.55
2023-01-01T17:09:33.239Z,2.58
2023-01-01T17:12:10.530Z,2.58
2023-01-01T17:14:38.253Z,2.45
2023-01-01T17:17:06.413Z,2.60
2023-01-01T17:19:41.649Z,2.92
2023-01-01T17:22:09.529Z,2.50
2023-01-01T17:24:37.181Z,2.95
2023-01-01T17:27:12.819Z,2.47
2023-01-01T17:29:42.191Z,2.75
2023-01-01T17:32:11.195Z,2.45
2023-01-01T17:34:50.071Z,3.67
2023-01-01T17:37:24.760Z,2.67
2023-01-01T17:40:03.189Z,3.25
2023-01-01T17:42:32.524Z,2.92
2023-01-01T17:45:08.171Z,2.80
2023-01-01T17:47:38.609Z,2.92
2023-01-01T17:50:15.947Z,2.88
2023-01-01T17:52:45.658Z,3.08
2023-01-01T17:55:13.638Z,3.03
2023-01-01T17:57:52.453Z,2.75
2023-01-01T18:00:21.275Z,2.80
2023-01-01T18:02:49.884Z,2.63
2023-01-01T18:05:27.888Z,2.97
2023-01-01T18:08:06.129Z,2.63
2023-01-01T18:10:52.079Z,3.30
2023-01-01T18:13:20.612Z,2.87
2023-01-01T18:15:54.884Z,3.07
2023-01-01T18:18:31.235Z,2.70
2023-01-01T18:21:25.989Z,2.60
2023-01-01T18:23:57.386Z,2.85
2023-01-01T18:26:35.786Z,2.63
2023-01-01T18:29:05.310Z,3.00
2023-01-01T18:31:34.504Z,2.65
2023-01-01T18:34:11.851Z,2.33
2023-01-01T18:36:48.190Z,2.10
2023-01-01T18:39:29.828Z,2.88
2023-01-01T18:42:34.718Z,2.40
2023-01-01T18:45:32.653Z,2.67
2023-01-01T18:48:05.447Z,2.50
2023-01-01T18:50:42.728Z,2.22
2023-01-01T18:53:15.567Z,2.42
2023-01-01T18:55:57.849Z,2.40
2023-01-01T18:58:26.719Z,2.05
2023-01-01T19:01:00.571Z,2.00
2023-01-01T19:03:40.849Z,2.30
2023-01-01T19:06:31.024Z,2.22
2023-01-01T19:09:30.040Z,1.95
2023-01-01T19:12:02.732Z,1.90
2023-01-01T19:14:43.655Z,2.55
2023-01-01T19:17:21.931Z,2.00
2023-01-01T19:19:56.796Z,1.83
2023-01-01T19:22:34.256Z,2.30
2023-01-01T19:25:16.691Z,1.92
2023-01-01T19:27:50.655Z,1.77
2023-01-01T19:30:32.741Z,1.88
2023-01-01T19:33:03.133Z,1.75
2023-01-01T19:35:34.922Z,1.95
2023-01-01T19:38:09.641Z,1.80
2023-01-01T19:40:40.409Z,1.80
2023-01-01T19:43:16.642Z,2.00
2023-01-01T19:45:45.517Z,1.90
2023-01-01T19:48:14.951Z,2.10
2023-01-01T19:50:48.826Z,2.15
2023-01-01T19:53:20.060Z,1.90
2023-01-01T19:55:47.661Z,1.80
2023-01-01T19:58:31.629Z,1.95
2023-01-01T20:01:03.535Z,1.77
2023-01-01T20:03:57.187Z,2.05
2023-01-01T20:06:33.128Z,1.88
2023-01-01T20:09:23.723Z,1.80
2023-01-01T20:11:58.312Z,1.70
2023-01-01T20:14:31.906Z,2.00
2023-01-01T20:17:00.108Z,1.70
2023-01-01T20:19:27.558Z,1.50
2023-01-01T20:22:20.882Z,1.70
2023-01-01T20:24:48.429Z,1.90
2023-01-01T20:27:31.859Z,1.88
2023-01-01T20:29:59.584Z,2.28
2023-01-01T20:32:28.296Z,2.10
2023-01-01T20:35:02.890Z,1.75
2023-01-01T20:37:39.341Z,1.52
2023-01-01T20:40:14.952Z,2.13
2023-01-01T20:42:58.923Z,1.50
2023-01-01T20:45:40.875Z,1.95
2023-01-01T20:48:08.623Z,1.75
2023-01-01T20:50:36.080Z,1.75
2023-01-01T20:53:10.821Z,1.30
2023-01-01T20:55:39.164Z,1.83
2023-01-01T20:58:06.455Z,1.75
2023-01-01T21:00:39.992Z,1.88
2023-01-01T21:03:07.350Z,1.73
2023-01-01T21:05:34.679Z,1.75
2023-01-01T21:08:08.954Z,1.55
2023-01-01T21:10:42.990Z,1.30
2023-01-01T21:13:16.949Z,1.70
2023-01-01T21:15:44.467Z,1.48
2023-01-01T21:18:16.838Z,1.60
2023-01-01T21:20:55.759Z,1.80
2023-01-01T21:23:29.874Z,1.85
2023-01-01T21:26:06.157Z,1.92
2023-01-01T21:28:35.822Z,1.48
2023-01-01T21:31:16.889Z,1.42
2023-01-01T21:33:48.389Z,1.80
2023-01-01T21:36:32.514Z,1.67
2023-01-01T21:39:09.813Z,1.73
2023-01-01T21:41:46.534Z,1.58
2023-01-01T21:44:16.138Z,1.40
2023-01-01T21:49:44.311Z,1.60
2023-01-01T21:52:21.920Z,1.63
2023-01-01T21:54:56.300Z,2.00
2023-01-01T21:57:25.065Z,1.58
2023-01-01T21:59:54.273Z,2.03
2023-01-01T22:02:37.596Z,1.92
2023-01-01T22:05:30.153Z,1.70
2023-01-01T22:08:35.766Z,1.88
2023-01-01T22:11:14.860Z,1.95
2023-01-01T22:13:48.785Z,1.45
2023-01-01T22:16:16.799Z,1.60
2023-01-01T22:18:45.606Z,2.00
2023-01-01T22:21:23.790Z,1.77
2023-01-01T22:23:59.913Z,1.58
2023-01-01T22:26:35.785Z,1.90
2023-01-01T22:29:12.508Z,1.73
2023-01-01T22:31:49.363Z,1.80
2023-01-01T22:34:23.138Z,2.00
2023-01-01T22:36:57.830Z,2.03
2023-01-01T22:39:33.827Z,2.05
2023-01-01T22:42:08.842Z,1.77
2023-01-01T22:44:37.025Z,2.08
2023-01-01T22:47:05.788Z,1.73
2023-01-01T22:49:48.792Z,1.42
2023-01-01T22:52:16.137Z,1.67
2023-01-01T22:54:47.796Z,1.63
2023-01-01T22:57:21.929Z,1.77
2023-01-01T22:59:49.363Z,2.17
2023-01-01T23:02:19.074Z,1.70
2023-01-01T23:04:53.068Z,1.60
2023-01-01T23:07:42.405Z,1.80
2023-01-01T23:10:20.032Z,1.73
2023-01-01T23:12:47.484Z,2.10
2023-01-01T23:15:40.205Z,2.07
2023-01-01T23:18:09.517Z,1.67
2023-01-01T23:20:36.981Z,1.92
2023-01-01T23:23:11.084Z,2.20
2023-01-01T23:25:38.447Z,1.70
2023-01-01T23:28:05.918Z,1.70
2023-01-01T23:30:40.125Z,1.67
2023-01-01T23:33:09.229Z,1.60
2023-01-01T23:35:36.981Z,1.92
2023-01-01T23:38:11.096Z,1.70
2023-01-01T23:40:38.418Z,1.88
2023-01-01T23:43:06.018Z,2.00
2023-01-01T23:45:42.899Z,1.80
2023-01-01T23:48:10.564Z,1.60
2023-01-01T23:50:38.051Z,2.00
2023-01-01T23:53:12.115Z,2.10
2023-01-01T23:55:39.495Z,1.95
2023-01-01T23:58:07.006Z,1.63
